Caribe Navigator — V2PW6 — position and weather

sailwx.info

Track history (hours):
 
Tides and Currents Weather Stations Pressure Air Temp Water Temp Dewpoint Dewpoint Depression Visibility Wind Speed Wind Dir Waves Ship Positions

Caribe Navigator

Last reported at 2015-Aug-28 04:30 UTC. Time now 2015-Aug-30 05:57 UTC.
Position N 25°03' W 080°11'.

Length 100 m; draft 5.3 m.

Type: Cargo ship. MMSI: 305289000.

Date/timePositionNaut miles runAvg speedWind from/ knotsBaromVisibWave heightAir tempDewpointWater temp
2015-Aug-28 04:30N 25°03' W 080°11'1312.1
2015-Aug-28 03:24N 25°16' W 080°05'1011.5
2015-Aug-28 02:32N 25°25' W 080°02'1212.5
2015-Aug-28 01:33N 25°37' W 080°02'1312.8
2015-Aug-28 00:34N 25°50' W 080°03'1212.1
2015-Aug-27 23:34N 26°02' W 080°04'4 3.7
2015-Aug-27 22:25N 26°05' W 080°07'0 0.0
2015-Aug-27 21:25N 26°05' W 080°07'0 0.0
2015-Aug-27 20:25N 26°05' W 080°07'0 0.0
2015-Aug-27 19:25N 26°05' W 080°07'0 0.0
2015-Aug-27 18:28N 26°05' W 080°07'0 0.0
2015-Aug-27 17:28N 26°05' W 080°07'0 0.0
2015-Aug-27 16:28N 26°05' W 080°07'0 0.0
2015-Aug-27 15:28N 26°05' W 080°07'0 0.0
2015-Aug-27 14:28N 26°05' W 080°07'0 0.0
2015-Aug-27 13:31N 26°05' W 080°07'0 0.0
2015-Aug-27 12:31N 26°05' W 080°07'0 0.0
2015-Aug-27 11:31N 26°05' W 080°07'0 0.0
2015-Aug-27 10:31N 26°05' W 080°07'0 0.0
2015-Aug-27 09:31N 26°05' W 080°07'0 0.0
2015-Aug-27 08:31N 26°05' W 080°07'0 0.0
2015-Aug-27 07:31N 26°05' W 080°07'0 0.0
2015-Aug-27 06:31N 26°05' W 080°07'0 0.0
2015-Aug-27 05:31N 26°05' W 080°07'0 0.0
2015-Aug-27 04:19N 26°05' W 080°07'0 0.0
2015-Aug-27 03:31N 26°05' W 080°07'0 0.0
2015-Aug-27 02:31N 26°05' W 080°07'0 0.0
2015-Aug-27 01:34N 26°05' W 080°07'1 0.8
2015-Aug-27 00:34N 26°06' W 080°06'1414.3
2015-Aug-26 23:33N 25°54' W 079°58'1717.2
2015-Aug-26 22:33N 25°39' W 079°48'  
2015-Aug-21 05:20N 25°15' W 080°05'1012.4
2015-Aug-21 04:32N 25°24' W 080°02'1212.1
2015-Aug-21 03:33N 25°36' W 080°02'1211.6
2015-Aug-21 02:33N 25°47' W 080°03'1110.6
2015-Aug-21 01:33N 25°58' W 080°04'8 8.2
2015-Aug-21 00:33N 26°05' W 080°07'0 0.1
2015-Aug-20 23:33N 26°05' W 080°07'0 0.0
2015-Aug-20 22:24N 26°05' W 080°07'0 0.0
2015-Aug-20 21:24N 26°05' W 080°07'0 0.0
2015-Aug-20 20:27N 26°05' W 080°07'0 0.0
2015-Aug-20 19:27N 26°05' W 080°07'0 0.0
2015-Aug-20 18:27N 26°05' W 080°07'0 0.0
2015-Aug-20 17:27N 26°05' W 080°07'0 0.0
2015-Aug-20 16:27N 26°05' W 080°07'0 0.0
2015-Aug-20 15:30N 26°05' W 080°07'0 0.0
2015-Aug-20 14:30N 26°05' W 080°07'0 0.0
2015-Aug-20 13:30N 26°05' W 080°07'0 0.0
2015-Aug-20 12:30N 26°05' W 080°07'0 0.0
2015-Aug-20 11:30N 26°05' W 080°07'0 0.0
2015-Aug-20 10:33N 26°05' W 080°07'0 0.0
2015-Aug-20 09:32N 26°05' W 080°07'0 0.0
2015-Aug-20 08:32N 26°05' W 080°07'0 0.0
2015-Aug-20 07:32N 26°05' W 080°07'0 0.0
2015-Aug-20 06:32N 26°05' W 080°07'0 0.0
2015-Aug-20 05:32N 26°05' W 080°07'0 0.0
2015-Aug-20 04:32N 26°05' W 080°07'0 0.0
2015-Aug-20 03:32N 26°05' W 080°07'0 0.0
2015-Aug-20 02:32N 26°05' W 080°07'1010.3
2015-Aug-20 01:33N 25°58' W 079°60'1817.6
2015-Aug-20 00:33N 25°42' W 079°50'  
Track history (hours):
 
Tides and Currents Weather Stations Pressure Air Temp Water Temp Dewpoint Dewpoint Depression Visibility Wind Speed Wind Dir Waves Ship Positions

Caribe Navigator

Last reported at 2015-Aug-28 04:30 UTC. Time now 2015-Aug-30 05:57 UTC.
Position N 25°03' W 080°11'.

Length 100 m; draft 5.3 m.

Type: Cargo ship. MMSI: 305289000.

Date/timePositionNaut miles runAvg speedWind from/ knotsBaromVisibWave heightAir tempDewpointWater temp
2015-Aug-28 04:30N 25°03' W 080°11'1312.1
2015-Aug-28 03:24N 25°16' W 080°05'1011.5
2015-Aug-28 02:32N 25°25' W 080°02'1212.5
2015-Aug-28 01:33N 25°37' W 080°02'1312.8
2015-Aug-28 00:34N 25°50' W 080°03'1212.1
2015-Aug-27 23:34N 26°02' W 080°04'4 3.7
2015-Aug-27 22:25N 26°05' W 080°07'0 0.0
2015-Aug-27 21:25N 26°05' W 080°07'0 0.0
2015-Aug-27 20:25N 26°05' W 080°07'0 0.0
2015-Aug-27 19:25N 26°05' W 080°07'0 0.0
2015-Aug-27 18:28N 26°05' W 080°07'0 0.0
2015-Aug-27 17:28N 26°05' W 080°07'0 0.0
2015-Aug-27 16:28N 26°05' W 080°07'0 0.0
2015-Aug-27 15:28N 26°05' W 080°07'0 0.0
2015-Aug-27 14:28N 26°05' W 080°07'0 0.0
2015-Aug-27 13:31N 26°05' W 080°07'0 0.0
2015-Aug-27 12:31N 26°05' W 080°07'0 0.0
2015-Aug-27 11:31N 26°05' W 080°07'0 0.0
2015-Aug-27 10:31N 26°05' W 080°07'0 0.0
2015-Aug-27 09:31N 26°05' W 080°07'0 0.0
2015-Aug-27 08:31N 26°05' W 080°07'0 0.0
2015-Aug-27 07:31N 26°05' W 080°07'0 0.0
2015-Aug-27 06:31N 26°05' W 080°07'0 0.0
2015-Aug-27 05:31N 26°05' W 080°07'0 0.0
2015-Aug-27 04:19N 26°05' W 080°07'0 0.0
2015-Aug-27 03:31N 26°05' W 080°07'0 0.0
2015-Aug-27 02:31N 26°05' W 080°07'0 0.0
2015-Aug-27 01:34N 26°05' W 080°07'1 0.8
2015-Aug-27 00:34N 26°06' W 080°06'1414.3
2015-Aug-26 23:33N 25°54' W 079°58'1717.2
2015-Aug-26 22:33N 25°39' W 079°48'  
2015-Aug-21 05:20N 25°15' W 080°05'1012.4
2015-Aug-21 04:32N 25°24' W 080°02'1212.1
2015-Aug-21 03:33N 25°36' W 080°02'1211.6
2015-Aug-21 02:33N 25°47' W 080°03'1110.6
2015-Aug-21 01:33N 25°58' W 080°04'8 8.2
2015-Aug-21 00:33N 26°05' W 080°07'0 0.1
2015-Aug-20 23:33N 26°05' W 080°07'0 0.0
2015-Aug-20 22:24N 26°05' W 080°07'0 0.0
2015-Aug-20 21:24N 26°05' W 080°07'0 0.0
2015-Aug-20 20:27N 26°05' W 080°07'0 0.0
2015-Aug-20 19:27N 26°05' W 080°07'0 0.0
2015-Aug-20 18:27N 26°05' W 080°07'0 0.0
2015-Aug-20 17:27N 26°05' W 080°07'0 0.0
2015-Aug-20 16:27N 26°05' W 080°07'0 0.0
2015-Aug-20 15:30N 26°05' W 080°07'0 0.0
2015-Aug-20 14:30N 26°05' W 080°07'0 0.0
2015-Aug-20 13:30N 26°05' W 080°07'0 0.0
2015-Aug-20 12:30N 26°05' W 080°07'0 0.0
2015-Aug-20 11:30N 26°05' W 080°07'0 0.0
2015-Aug-20 10:33N 26°05' W 080°07'0 0.0
2015-Aug-20 09:32N 26°05' W 080°07'0 0.0
2015-Aug-20 08:32N 26°05' W 080°07'0 0.0
2015-Aug-20 07:32N 26°05' W 080°07'0 0.0
2015-Aug-20 06:32N 26°05' W 080°07'0 0.0
2015-Aug-20 05:32N 26°05' W 080°07'0 0.0
2015-Aug-20 04:32N 26°05' W 080°07'0 0.0
2015-Aug-20 03:32N 26°05' W 080°07'0 0.0
2015-Aug-20 02:32N 26°05' W 080°07'1010.3
2015-Aug-20 01:33N 25°58' W 079°60'1817.6
2015-Aug-20 00:33N 25°42' W 079°50'  

Dump ship's entire track history